Time;durP1;ratioP1;P1;durP2;ratioP2;P2;SDS_P1;SDS_P2;PMS_P1;PMS_P2;Temp;Humidity;BMP_temperature;BMP_pressure;BME280_temperature;BME280_humidity;BME280_pressure;Samples;Min_cycle;Max_cycle;Signal;HPM_P1;HPM_P2
2022/04/04 00:00:44;;;;;;;;;;;;;;;20.62;36.41;101787.19;5039499;28;19940;-87
2022/04/04 00:03:10;;;;;;;;;;;;;;;20.61;36.30;101793.75;5060067;28;19913;-87
2022/04/04 00:05:39;;;;;;;;;;;;;;;20.62;36.42;101788.00;5047931;28;19967;-87
2022/04/04 00:08:07;;;;;;;;;;;;;;;20.65;36.20;101781.13;5060800;28;19963;-86
2022/04/04 00:10:32;;;;;;;;;;;;;;;20.65;36.08;101775.63;5039630;28;20303;-88
2022/04/04 00:12:58;;;;;;;;;;;;;;;20.64;36.44;101768.50;5056997;28;19970;-88
2022/04/04 00:15:23;;;;;;;;;;;;;;;20.64;36.07;101766.56;5056817;28;19963;-88
2022/04/04 00:17:49;;;;;;;;;;;;;;;20.64;35.99;101761.09;5056469;28;19984;-86
2022/04/04 00:20:15;;;;;;;;;;;;;;;20.62;36.09;101755.06;5071966;28;19917;-87
2022/04/04 00:22:41;;;;;;;;;;;;;;;20.61;36.32;101747.91;5056504;28;19939;-87
2022/04/04 00:25:07;;;;;;;;;;;;;;;20.60;36.20;101749.03;5072007;28;19923;-87
2022/04/04 00:27:32;;;;;;;;;;;;;;;20.58;35.95;101740.25;5056087;28;20326;-87
2022/04/04 00:29:57;;;;;;;;;;;;;;;20.57;36.11;101737.81;5056212;28;19925;-87
2022/04/04 00:32:23;;;;;;;;;;;;;;;20.56;36.11;101733.41;5056453;28;20376;-88
2022/04/04 00:34:48;;;;;;;;;;;;;;;20.55;36.13;101738.09;5071767;28;20272;-86
2022/04/04 00:37:13;;;;;;;;;;;;;;;20.53;36.13;101729.28;5038375;28;19916;-88
2022/04/04 00:39:38;;;;;;;;;;;;;;;20.51;36.01;101724.09;5055973;28;20074;-87
2022/04/04 00:42:04;;;;;;;;;;;;;;;20.50;36.20;101725.19;5055494;28;19921;-87
2022/04/04 00:44:29;;;;;;;;;;;;;;;20.50;36.05;101721.63;5056470;28;19924;-88
2022/04/04 00:46:54;;;;;;;;;;;;;;;20.49;36.06;101720.00;5056294;28;19921;-88
2022/04/04 00:49:20;;;;;;;;;;;;;;;20.47;36.17;101712.03;5056401;28;19917;-88
2022/04/04 00:51:45;;;;;;;;;;;;;;;20.47;36.16;101713.97;5056805;28;19913;-87
2022/04/04 00:54:11;;;;;;;;;;;;;;;20.45;35.98;101707.94;5073217;28;20356;-87
2022/04/04 00:56:37;;;;;;;;;;;;;;;20.43;36.03;101697.25;5041096;28;19912;-86
2022/04/04 00:59:03;;;;;;;;;;;;;;;20.43;36.02;101704.66;5056321;28;19913;-88
2022/04/04 01:01:29;;;;;;;;;;;;;;;20.42;36.09;101695.59;5057424;28;20364;-86
2022/04/04 01:03:54;;;;;;;;;;;;;;;20.41;36.11;101690.41;5046476;28;19943;-88
2022/04/04 01:06:20;;;;;;;;;;;;;;;20.40;36.10;101688.78;5060007;28;20349;-86
2022/04/04 01:08:45;;;;;;;;;;;;;;;20.39;36.05;101678.91;5059230;28;20280;-86
2022/04/04 01:11:11;;;;;;;;;;;;;;;20.36;35.94;101674.81;5055820;28;19920;-85
2022/04/04 01:13:36;;;;;;;;;;;;;;;20.36;36.12;101674.81;5055319;28;19923;-85
2022/04/04 01:16:02;;;;;;;;;;;;;;;20.36;36.07;101668.47;5055127;28;19917;-85
2022/04/04 01:18:27;;;;;;;;;;;;;;;20.34;35.87;101673.47;5037383;28;19963;-86
2022/04/04 01:20:53;;;;;;;;;;;;;;;20.34;36.00;101662.50;5055522;28;19959;-82
2022/04/04 01:23:21;;;;;;;;;;;;;;;20.32;35.93;101658.09;5055942;28;19921;-86
2022/04/04 01:25:46;;;;;;;;;;;;;;;20.30;35.91;101654.81;5055110;28;19913;-86
2022/04/04 01:28:12;;;;;;;;;;;;;;;20.29;36.16;101649.63;5054965;28;19924;-88
2022/04/04 01:30:38;;;;;;;;;;;;;;;20.29;36.10;101642.22;5054746;28;19962;-87
2022/04/04 01:33:03;;;;;;;;;;;;;;;20.28;35.92;101645.22;5055246;28;19964;-87
2022/04/04 01:35:28;;;;;;;;;;;;;;;20.27;35.89;101644.41;5070772;28;19979;-85
2022/04/04 01:37:54;;;;;;;;;;;;;;;20.26;36.02;101637.28;5070643;28;19920;-82
2022/04/04 01:40:19;;;;;;;;;;;;;;;20.25;35.94;101627.41;5070897;28;19924;-87
2022/04/04 01:42:49;;;;;;;;;;;;;;;20.24;36.00;101620.28;5055115;28;19917;-87
2022/04/04 01:45:14;;;;;;;;;;;;;;;20.23;36.00;101621.38;5054749;28;19920;-89
2022/04/04 01:47:40;;;;;;;;;;;;;;;20.22;35.92;101617.00;5054886;28;19917;-88
2022/04/04 01:50:07;;;;;;;;;;;;;;;20.22;35.84;101603.28;5054960;28;19920;-88
2022/04/04 01:52:32;;;;;;;;;;;;;;;20.21;35.95;101604.41;5037199;28;19917;-89
2022/04/04 01:54:57;;;;;;;;;;;;;;;20.19;35.89;101601.13;5054940;28;19967;-87
2022/04/04 01:57:22;;;;;;;;;;;;;;;20.18;35.94;101591.25;5054607;28;19916;-88
2022/04/04 01:59:48;;;;;;;;;;;;;;;20.18;35.97;101593.19;5054518;28;19927;-87
2022/04/04 02:02:13;;;;;;;;;;;;;;;20.16;36.03;101585.25;5069674;28;19917;-88
2022/04/04 02:04:38;;;;;;;;;;;;;;;20.17;36.02;101588.81;5053451;28;20375;-87
2022/04/04 02:07:05;;;;;;;;;;;;;;;20.15;35.92;101580.84;5054556;28;19924;-89
2022/04/04 02:09:31;;;;;;;;;;;;;;;20.15;35.86;101580.03;5055034;28;19913;-86
2022/04/04 02:11:56;;;;;;;;;;;;;;;20.13;35.90;101574.84;5055017;28;19988;-87
2022/04/04 02:14:21;;;;;;;;;;;;;;;20.13;35.88;101574.03;5054307;28;20376;-87
2022/04/04 02:16:47;;;;;;;;;;;;;;;20.12;35.84;101564.97;5035799;28;19917;-86
2022/04/04 02:19:12;;;;;;;;;;;;;;;20.11;35.85;101566.09;5054234;28;19923;-87
2022/04/04 02:21:38;;;;;;;;;;;;;;;20.12;35.87;101564.16;5037174;28;19979;-87
2022/04/04 02:24:04;;;;;;;;;;;;;;;20.11;36.02;101566.09;5069738;28;19952;-88
2022/04/04 02:26:29;;;;;;;;;;;;;;;20.09;35.93;101558.16;5054803;28;19953;-88
2022/04/04 02:28:54;;;;;;;;;;;;;;;20.09;35.90;101549.09;5036321;28;19916;-87
2022/04/04 02:31:19;;;;;;;;;;;;;;;20.08;35.80;101547.44;5054327;28;19998;-90
2022/04/04 02:33:45;;;;;;;;;;;;;;;20.07;35.82;101537.59;5070113;28;20246;-87
2022/04/04 02:36:10;;;;;;;;;;;;;;;20.06;35.93;101534.03;5053805;28;20022;-87
2022/04/04 02:38:35;;;;;;;;;;;;;;;20.05;35.82;101529.66;5069949;28;19917;-87
2022/04/04 02:41:01;;;;;;;;;;;;;;;20.05;35.83;101523.34;5054259;28;19996;-87
2022/04/04 02:43:26;;;;;;;;;;;;;;;20.04;35.88;101518.97;5054272;28;19921;-87
2022/04/04 02:45:52;;;;;;;;;;;;;;;20.04;35.99;101516.25;5054048;28;20003;-87
2022/04/04 02:48:17;;;;;;;;;;;;;;;20.03;36.00;101512.69;5053684;28;20324;-86
2022/04/04 02:50:43;;;;;;;;;;;;;;;20.02;35.80;101500.06;5054095;28;20019;-86
2022/04/04 02:53:08;;;;;;;;;;;;;;;20.03;35.77;101492.66;5052526;28;19921;-86
2022/04/04 02:58:17;;;;;;;;;;;;;;;20.01;35.95;101483.91;5054713;28;19935;-86
2022/04/04 03:00:43;;;;;;;;;;;;;;;20.00;36.08;101474.84;5059026;28;20344;-84
2022/04/04 03:03:08;;;;;;;;;;;;;;;20.00;36.02;101474.03;5060751;28;19924;-85
2022/04/04 03:05:34;;;;;;;;;;;;;;;20.01;35.85;101470.19;5057507;28;19917;-86
2022/04/04 03:08:00;;;;;;;;;;;;;;;19.99;35.79;101470.47;5070593;28;19920;-86
2022/04/04 03:10:25;;;;;;;;;;;;;;;19.98;35.80;101463.38;5054301;28;20333;-88
2022/04/04 03:12:50;;;;;;;;;;;;;;;19.98;35.80;101454.31;5053580;28;19936;-87
2022/04/04 03:15:17;;;;;;;;;;;;;;;19.98;36.01;101460.63;5064025;28;19918;-88
2022/04/04 03:17:43;;;;;;;;;;;;;;;19.97;35.68;101452.69;5047222;28;19913;-85
2022/04/04 03:20:09;;;;;;;;;;;;;;;19.97;35.93;101447.19;5048980;28;19919;-88
2022/04/04 03:22:38;;;;;;;;;;;;;;;19.96;35.83;101446.38;5056062;28;19913;-87
2022/04/04 03:25:04;;;;;;;;;;;;;;;19.95;35.77;101431.03;5054668;28;19917;-87
2022/04/04 03:27:30;;;;;;;;;;;;;;;19.95;35.81;101431.03;5069744;28;20020;-88
2022/04/04 03:29:55;;;;;;;;;;;;;;;19.95;35.85;101430.22;5056157;28;19913;-88
2022/04/04 03:32:20;;;;;;;;;;;;;;;19.94;35.91;101418.44;5057666;28;19916;-88
2022/04/04 03:34:45;;;;;;;;;;;;;;;19.93;35.85;101413.22;5056165;28;19916;-88
2022/04/04 03:37:11;;;;;;;;;;;;;;;19.93;35.88;101408.53;5057481;28;20373;-88
2022/04/04 03:39:37;;;;;;;;;;;;;;;19.93;35.88;101407.75;5039836;28;19924;-89
2022/04/04 03:42:02;;;;;;;;;;;;;;;19.92;35.86;101397.88;5057757;28;19921;-87
2022/04/04 03:44:27;;;;;;;;;;;;;;;19.92;35.92;101392.41;5057167;28;19970;-89
2022/04/04 03:46:52;;;;;;;;;;;;;;;19.91;35.83;101394.34;5057172;28;20015;-88
2022/04/04 03:49:18;;;;;;;;;;;;;;;19.89;35.82;101397.34;5057236;28;19921;-88
2022/04/04 03:51:43;;;;;;;;;;;;;;;19.90;35.79;101387.19;5057065;28;19921;-89
2022/04/04 03:54:08;;;;;;;;;;;;;;;19.89;35.79;101377.34;5072757;28;19925;-89
2022/04/04 03:56:33;;;;;;;;;;;;;;;19.89;36.03;101375.41;5039083;28;19917;-89
2022/04/04 03:58:59;;;;;;;;;;;;;;;19.88;36.08;101368.31;5056963;28;19921;-88
2022/04/04 04:01:27;;;;;;;;;;;;;;;19.87;35.84;101366.66;5038624;28;19999;-87
2022/04/04 04:03:52;;;;;;;;;;;;;;;19.86;35.85;101356.81;5056930;28;19924;-88
2022/04/04 04:06:17;;;;;;;;;;;;;;;19.86;35.83;101351.34;5055267;28;19917;-87
2022/04/04 04:08:46;;;;;;;;;;;;;;;19.85;35.77;101352.41;5055888;28;19924;-88
2022/04/04 04:11:13;;;;;;;;;;;;;;;19.84;36.01;101342.56;5056845;28;20000;-88
2022/04/04 04:13:40;;;;;;;;;;;;;;;19.84;35.92;101344.50;5056966;28;19917;-87
2022/04/04 04:16:09;;;;;;;;;;;;;;;19.84;36.07;101339.84;5057162;28;19920;-86
2022/04/04 04:18:34;;;;;;;;;;;;;;;19.84;35.79;101333.53;5056738;28;19917;-84
2022/04/04 04:21:00;;;;;;;;;;;;;;;19.83;35.99;101327.25;5038616;28;19959;-88
2022/04/04 04:23:25;;;;;;;;;;;;;;;19.83;35.91;101320.91;5072158;28;19917;-88
2022/04/04 04:25:50;;;;;;;;;;;;;;;19.82;35.84;101325.59;5071892;28;19919;-88
2022/04/04 04:28:16;;;;;;;;;;;;;;;19.82;35.96;101327.53;5056275;28;19917;-87
2022/04/04 04:30:41;;;;;;;;;;;;;;;19.81;35.85;101315.75;5056372;28;19920;-88
2022/04/04 04:33:07;;;;;;;;;;;;;;;19.81;35.87;101309.47;5056372;28;19924;-87
2022/04/04 04:35:33;;;;;;;;;;;;;;;19.80;35.79;101303.13;5038621;28;20058;-87
2022/04/04 04:37:58;;;;;;;;;;;;;;;19.81;36.10;101303.97;5056278;28;20361;-88
2022/04/04 04:40:24;;;;;;;;;;;;;;;19.80;35.90;101300.41;5054719;28;19920;-88
2022/04/04 04:42:50;;;;;;;;;;;;;;;19.79;35.91;101287.81;5038185;28;20025;-89
2022/04/04 04:45:15;;;;;;;;;;;;;;;19.79;35.84;101293.28;5038474;28;19979;-89
2022/04/04 04:47:41;;;;;;;;;;;;;;;19.78;36.04;101288.94;5038223;28;20272;-88
2022/04/04 04:50:07;;;;;;;;;;;;;;;19.78;35.81;101280.69;5055956;28;19917;-87
2022/04/04 04:52:33;;;;;;;;;;;;;;;19.78;35.99;101277.97;5038907;28;19917;-88
2022/04/04 04:54:59;;;;;;;;;;;;;;;19.77;36.08;101276.31;5056053;28;19936;-88
2022/04/04 04:57:25;;;;;;;;;;;;;;;19.78;35.74;101267.00;5055694;28;20015;-88
2022/04/04 04:59:50;;;;;;;;;;;;;;;19.77;35.89;101259.88;5071730;28;19967;-87
2022/04/04 05:02:15;;;;;;;;;;;;;;;19.76;35.83;101255.50;5071937;28;20020;-88
2022/04/04 05:04:40;;;;;;;;;;;;;;;19.76;35.91;101255.50;5071206;28;20342;-88
2022/04/04 05:07:08;;;;;;;;;;;;;;;19.76;35.89;101249.22;5055976;28;19916;-88
2022/04/04 05:09:36;;;;;;;;;;;;;;;19.75;35.89;101240.16;5056104;28;19948;-88
2022/04/04 05:12:02;;;;;;;;;;;;;;;19.75;36.01;101237.41;5038214;28;19921;-88
2022/04/04 05:14:27;;;;;;;;;;;;;;;19.75;35.86;101234.66;5037689;28;20272;-87
2022/04/04 05:16:53;;;;;;;;;;;;;;;19.75;35.89;101228.38;5055391;28;20289;-89
2022/04/04 05:19:19;;;;;;;;;;;;;;;19.75;35.86;101222.88;5071266;28;19921;-86
2022/04/04 05:21:45;;;;;;;;;;;;;;;19.73;35.91;101212.25;5037737;28;19983;-87
2022/04/04 05:24:11;;;;;;;;;;;;;;;19.73;35.98;101209.50;5055558;28;20349;-85
2022/04/04 05:26:36;;;;;;;;;;;;;;;19.74;36.06;101211.13;5037089;28;19921;-87
2022/04/04 05:29:01;;;;;;;;;;;;;;;19.74;35.84;101202.09;5053629;28;20388;-88
2022/04/04 05:31:27;;;;;;;;;;;;;;;19.73;36.00;101198.53;5037534;28;20361;-89
2022/04/04 05:33:54;;;;;;;;;;;;;;;19.73;35.83;101192.22;5055436;28;20029;-91
2022/04/04 05:36:20;;;;;;;;;;;;;;;19.74;35.88;101188.38;5055080;28;20000;-88
2022/04/04 05:38:50;;;;;;;;;;;;;;;19.75;35.94;101182.59;5054852;28;19929;-81
2022/04/04 05:41:16;;;;;;;;;;;;;;;19.77;36.13;101185.84;5053005;28;20289;-83
2022/04/04 05:43:41;;;;;;;;;;;;;;;19.78;36.02;101179.28;5055138;28;19932;-85
2022/04/04 05:46:07;;;;;;;;;;;;;;;19.78;36.33;101176.53;5070555;28;20300;-85
2022/04/04 05:48:34;;;;;;;;;;;;;;;19.79;36.17;101163.66;5054405;28;20011;-85
2022/04/04 05:50:59;;;;;;;;;;;;;;;19.79;36.32;101163.66;5036873;28;19932;-87
2022/04/04 05:53:24;;;;;;;;;;;;;;;19.78;36.41;101168.31;5070386;28;19916;-86
2022/04/04 05:55:49;;;;;;;;;;;;;;;19.79;36.39;101171.88;5055763;28;19916;-86
2022/04/04 05:58:15;;;;;;;;;;;;;;;19.78;36.33;101171.06;5071991;28;20428;-86
2022/04/04 06:00:40;;;;;;;;;;;;;;;19.78;36.34;101165.56;5037259;28;20309;-86
2022/04/04 06:03:06;;;;;;;;;;;;;;;19.78;36.33;101167.47;5055270;28;19967;-87
2022/04/04 06:05:31;;;;;;;;;;;;;;;19.77;36.33;101161.19;5069978;28;20007;-86
2022/04/04 06:07:56;;;;;;;;;;;;;;;19.77;36.41;101163.13;5036463;28;19920;-87
2022/04/04 06:10:22;;;;;;;;;;;;;;;19.77;36.31;101149.41;5054794;28;19943;-86
2022/04/04 06:12:47;;;;;;;;;;;;;;;19.77;36.58;101141.19;5053368;28;19921;-86
2022/04/04 06:15:14;;;;;;;;;;;;;;;19.76;36.54;101139.56;5070080;28;19920;-87
2022/04/04 06:17:39;;;;;;;;;;;;;;;19.76;36.38;101142.31;5054678;28;19920;-85
2022/04/04 06:20:05;;;;;;;;;;;;;;;19.76;36.45;101151.34;5054746;28;19921;-86
2022/04/04 06:22:37;;;;;;;;;;;;;;;19.76;36.50;101143.13;5053207;28;19927;-85
2022/04/04 06:25:04;;;;;;;;;;;;;;;19.75;36.47;101127.78;5053796;28;19971;-85
2022/04/04 06:27:30;;;;;;;;;;;;;;;19.76;36.63;101132.16;5036733;28;20301;-85
2022/04/04 06:29:55;;;;;;;;;;;;;;;19.77;36.57;101124.75;5053998;28;19924;-84
2022/04/04 06:32:20;;;;;;;;;;;;;;;19.75;36.55;101114.06;5069344;28;19920;-85
2022/04/04 06:34:46;;;;;;;;;;;;;;;19.76;36.57;101112.16;5036294;28;19923;-82
2022/04/04 06:37:11;;;;;;;;;;;;;;;19.76;36.53;101106.69;5053663;28;20304;-82
2022/04/04 06:39:37;;;;;;;;;;;;;;;19.76;36.58;101107.50;5069256;28;19920;-86
2022/04/04 06:42:02;;;;;;;;;;;;;;;19.77;36.68;101094.59;5035347;28;19944;-81
2022/04/04 06:44:28;;;;;;;;;;;;;;;19.78;36.80;101093.47;5053589;28;19928;-81
2022/04/04 06:46:53;;;;;;;;;;;;;;;19.78;36.77;101087.97;5053233;28;19921;-84
2022/04/04 06:49:18;;;;;;;;;;;;;;;19.79;36.77;101076.75;5068849;28;19931;-83
2022/04/04 06:51:43;;;;;;;;;;;;;;;19.81;36.81;101073.72;5054772;28;19925;-83
2022/04/04 06:54:09;;;;;;;;;;;;;;;19.82;36.94;101067.09;5074161;28;20328;-82
2022/04/04 06:56:37;;;;;;;;;;;;;;;19.83;36.76;101065.97;5053296;28;20023;-83
2022/04/04 06:59:02;;;;;;;;;;;;;;;19.85;36.80;101064.56;5053308;28;20373;-86
2022/04/04 07:01:28;;;;;;;;;;;;;;;19.86;36.98;101057.19;5052330;28;19920;-83
2022/04/04 07:03:53;;;;;;;;;;;;;;;19.87;37.11;101045.09;5069902;28;19972;-84
2022/04/04 07:06:18;;;;;;;;;;;;;;;19.88;37.07;101047.56;5073137;28;20407;-83
2022/04/04 07:08:44;;;;;;;;;;;;;;;19.89;37.13;101045.63;5057032;28;20004;-84
2022/04/04 07:11:10;;;;;;;;;;;;;;;19.90;37.18;101033.53;5072666;28;20385;-82
2022/04/04 07:13:39;;;;;;;;;;;;;;;19.91;37.35;101035.19;5056680;28;19916;-82
2022/04/04 07:16:04;;;;;;;;;;;;;;;19.92;37.15;101025.03;5039238;28;19917;-81
2022/04/04 07:18:30;;;;;;;;;;;;;;;19.93;37.27;101032.94;5056801;28;20375;-81
2022/04/04 07:20:55;;;;;;;;;;;;;;;19.94;37.04;101020.88;5057464;28;19924;-85
2022/04/04 07:23:21;;;;;;;;;;;;;;;19.96;37.08;101015.06;5057158;28;19987;-86
2022/04/04 07:25:49;;;;;;;;;;;;;;;19.95;37.08;101007.97;5039834;28;19925;-86
2022/04/04 07:28:14;;;;;;;;;;;;;;;19.95;37.00;101005.22;5057054;28;19921;-86
2022/04/04 07:30:40;;;;;;;;;;;;;;;19.96;37.01;101002.19;5073151;28;19928;-87
2022/04/04 07:33:08;;;;;;;;;;;;;;;20.00;36.88;100994.16;5072396;28;19927;-85
2022/04/04 07:35:33;;;;;;;;;;;;;;;20.05;37.33;100994.09;5056778;28;19917;-87
2022/04/04 07:37:58;;;;;;;;;;;;;;;20.08;37.06;100982.50;5038891;28;20421;-85
2022/04/04 07:40:23;;;;;;;;;;;;;;;20.14;36.93;100966.81;5055305;28;19944;-85
2022/04/04 07:42:49;;;;;;;;;;;;;;;20.18;37.09;100984.25;5056747;28;19925;-85
2022/04/04 07:45:15;;;;;;;;;;;;;;;20.24;37.13;100961.94;5056611;28;19921;-85
2022/04/04 07:47:41;;;;;;;;;;;;;;;20.28;37.06;100964.88;5056385;28;19948;-85
2022/04/04 07:50:07;;;;;;;;;;;;;;;20.34;37.02;100966.41;5057118;28;19921;-85
2022/04/04 07:52:33;;;;;;;;;;;;;;;20.39;36.90;100958.09;5057008;28;19974;-85
2022/04/04 07:54:58;;;;;;;;;;;;;;;20.44;37.12;100957.19;5055505;28;20012;-86
2022/04/04 07:57:23;;;;;;;;;;;;;;;20.49;37.12;100948.88;5072378;28;19944;-85
2022/04/04 07:59:50;;;;;;;;;;;;;;;20.54;37.16;100948.75;5056740;28;19995;-83
2022/04/04 08:02:16;;;;;;;;;;;;;;;20.59;37.14;100937.72;5038663;28;19975;-81
2022/04/04 08:04:41;;;;;;;;;;;;;;;20.64;36.78;100929.38;5056252;28;19925;-86
2022/04/04 08:07:06;;;;;;;;;;;;;;;20.68;36.96;100926.81;5056145;28;19927;-86
2022/04/04 08:09:32;;;;;;;;;;;;;;;20.73;36.87;100927.50;5071276;28;19927;-85
2022/04/04 08:11:57;;;;;;;;;;;;;;;20.78;36.90;100903.84;5038355;28;19921;-86
2022/04/04 08:14:23;;;;;;;;;;;;;;;20.80;37.03;100902.41;5055901;28;19921;-84
2022/04/04 08:16:48;;;;;;;;;;;;;;;20.85;36.95;100905.03;5055636;28;19917;-86
2022/04/04 08:19:15;;;;;;;;;;;;;;;20.88;36.88;100909.91;5071581;28;19921;-86
2022/04/04 08:21:44;;;;;;;;;;;;;;;20.92;37.12;100910.13;5055592;28;19966;-87
2022/04/04 08:24:10;;;;;;;;;;;;;;;20.96;36.97;100906.44;5055712;28;19920;-87
2022/04/04 08:26:35;;;;;;;;;;;;;;;21.00;36.87;100894.84;5056060;28;20284;-85
2022/04/04 08:29:01;;;;;;;;;;;;;;;21.02;37.11;100901.66;5055088;28;20066;-84
2022/04/04 08:31:26;;;;;;;;;;;;;;;21.05;36.97;100898.28;5055559;28;19916;-84
2022/04/04 08:33:51;;;;;;;;;;;;;;;21.08;37.11;100896.84;5055617;28;19936;-85
2022/04/04 08:36:17;;;;;;;;;;;;;;;21.11;36.97;100888.78;5037906;28;19921;-88
2022/04/04 08:38:42;;;;;;;;;;;;;;;21.14;37.12;100890.94;5037658;28;19990;-84
2022/04/04 08:41:09;;;;;;;;;;;;;;;21.18;37.03;100880.13;5037426;28;19955;-81
2022/04/04 08:43:38;;;;;;;;;;;;;;;21.21;37.03;100878.69;5037424;28;19929;-85
2022/04/04 08:46:06;;;;;;;;;;;;;;;21.23;37.13;100880.00;5037316;28;20288;-85
2022/04/04 08:48:32;;;;;;;;;;;;;;;21.26;37.22;100882.13;5037500;28;19924;-83
2022/04/04 08:50:57;;;;;;;;;;;;;;;21.28;37.12;100882.63;5037447;28;19917;-84
2022/04/04 08:53:23;;;;;;;;;;;;;;;21.31;36.90;100875.69;5038270;28;19920;-85
2022/04/04 08:55:48;;;;;;;;;;;;;;;21.33;36.98;100881.72;5056649;28;20435;-87
2022/04/04 08:58:13;;;;;;;;;;;;;;;21.35;37.08;100873.97;5053920;28;19927;-83
2022/04/04 09:00:40;;;;;;;;;;;;;;;21.38;37.19;100879.66;5055090;28;20016;-82
2022/04/04 09:03:05;;;;;;;;;;;;;;;21.40;37.08;100879.38;5055282;28;19963;-84
2022/04/04 09:05:32;;;;;;;;;;;;;;;21.43;36.86;100869.69;5037241;28;19920;-81
2022/04/04 09:07:58;;;;;;;;;;;;;;;21.45;37.11;100853.69;5054443;28;19913;-84
2022/04/04 09:10:29;;;;;;;;;;;;;;;21.47;37.12;100854.19;5054692;28;19916;-82
2022/04/04 09:13:03;;;;;;;;;;;;;;;21.50;37.24;100851.63;5037343;28;19917;-84
2022/04/04 09:15:47;;;;;;;;;;;;;;;21.52;37.10;100848.56;5036996;28;20353;-83
2022/04/04 09:18:12;;;;;;;;;;;;;;;21.53;37.04;100845.50;5054474;28;19967;-83
2022/04/04 09:20:46;;;;;;;;;;;;;;;21.55;37.27;100837.75;5054721;28;19928;-84
2022/04/04 09:23:11;;;;;;;;;;;;;;;21.57;37.18;100832.75;5054473;28;20007;-84
2022/04/04 09:25:37;;;;;;;;;;;;;;;21.59;37.30;100833.22;5036756;28;19968;-84
2022/04/04 09:28:15;;;;;;;;;;;;;;;21.61;37.18;100827.44;5069467;28;19925;-85
2022/04/04 09:30:41;;;;;;;;;;;;;;;21.63;37.16;100827.94;5054041;28;19924;-84
2022/04/04 09:33:06;;;;;;;;;;;;;;;21.64;37.21;100824.06;5054324;28;19916;-83
2022/04/04 09:35:32;;;;;;;;;;;;;;;21.67;37.27;100830.84;5036596;28;19916;-83
2022/04/04 09:37:58;;;;;;;;;;;;;;;21.67;37.04;100823.44;5037086;28;20344;-85
2022/04/04 09:40:27;;;;;;;;;;;;;;;21.69;36.88;100823.09;5054308;28;19928;-85
2022/04/04 09:42:53;;;;;;;;;;;;;;;21.71;37.02;100815.38;5054213;28;19924;-80
2022/04/04 09:45:19;;;;;;;;;;;;;;;21.72;37.23;100816.97;5054570;28;20007;-83
2022/04/04 09:47:50;;;;;;;;;;;;;;;21.74;37.00;100814.72;5053762;28;20337;-81
2022/04/04 09:50:36;;;;;;;;;;;;;;;21.75;37.21;100814.41;5035910;28;19971;-83
2022/04/04 09:53:09;;;;;;;;;;;;;;;21.76;37.04;100816.03;5036724;28;19924;-85
2022/04/04 09:55:43;;;;;;;;;;;;;;;21.78;37.23;100796.47;5053979;28;19917;-83
2022/04/04 09:58:09;;;;;;;;;;;;;;;21.79;37.09;100811.84;5036905;28;20015;-82
2022/04/04 10:00:36;;;;;;;;;;;;;;;21.80;37.17;100800.53;5053833;28;19924;-82
2022/04/04 10:03:03;;;;;;;;;;;;;;;21.83;37.14;100807.34;5053840;28;19916;-82
2022/04/04 10:05:28;;;;;;;;;;;;;;;21.84;37.13;100792.44;5053882;28;19917;-82
2022/04/04 10:07:55;;;;;;;;;;;;;;;21.86;37.27;100794.88;5035936;28;19920;-82
2022/04/04 10:10:23;;;;;;;;;;;;;;;21.88;37.18;100781.63;5053695;28;20007;-84
2022/04/04 10:12:49;;;;;;;;;;;;;;;21.89;37.07;100781.31;5053730;28;19999;-81
2022/04/04 10:15:14;;;;;;;;;;;;;;;21.90;37.16;100788.44;5053355;28;19955;-82
2022/04/04 10:17:39;;;;;;;;;;;;;;;21.91;37.18;100784.56;5053404;28;20377;-83
2022/04/04 10:20:06;;;;;;;;;;;;;;;21.93;37.25;100779.56;5035633;28;19921;-86
2022/04/04 10:22:33;;;;;;;;;;;;;;;21.94;37.27;100785.84;5053731;28;19925;-85
2022/04/04 10:25:00;;;;;;;;;;;;;;;21.95;37.01;100769.03;5053433;28;19917;-85
2022/04/04 10:27:25;;;;;;;;;;;;;;;21.96;37.13;100778.09;5036181;28;19921;-88
2022/04/04 10:30:03;;;;;;;;;;;;;;;21.96;37.04;100787.16;5053456;28;19921;-87
2022/04/04 10:32:30;;;;;;;;;;;;;;;21.97;37.01;100786.03;5054009;28;19917;-85
2022/04/04 10:34:55;;;;;;;;;;;;;;;21.98;37.34;100781.34;5068359;28;20010;-88
2022/04/04 10:37:25;;;;;;;;;;;;;;;22.00;37.11;100781.84;5053354;28;20361;-84
2022/04/04 10:39:51;;;;;;;;;;;;;;;22.01;37.00;100769.72;5053248;28;19944;-81
2022/04/04 10:42:30;;;;;;;;;;;;;;;22.01;37.01;100772.44;5035174;28;20015;-85
2022/04/04 10:45:00;;;;;;;;;;;;;;;21.97;37.15;100772.28;5035161;28;19913;-82
2022/04/04 10:47:26;;;;;;;;;;;;;;;21.95;36.78;100768.25;5053878;28;19920;-79
2022/04/04 10:49:54;;;;;;;;;;;;;;;21.92;36.78;100769.66;5052856;28;19913;-82
2022/04/04 10:52:22;;;;;;;;;;;;;;;21.89;36.98;100764.00;5052912;28;20269;-82
2022/04/04 10:54:48;;;;;;;;;;;;;;;21.86;36.85;100764.66;5053745;28;19928;-82
2022/04/04 10:57:17;;;;;;;;;;;;;;;21.82;36.74;100750.69;5053143;28;19917;-81
2022/04/04 10:59:46;;;;;;;;;;;;;;;21.79;36.86;100756.84;5052845;28;19955;-81
2022/04/04 11:02:12;;;;;;;;;;;;;;;21.76;37.02;100749.25;5035182;28;19920;-76
2022/04/04 11:04:38;;;;;;;;;;;;;;;21.73;36.63;100747.13;5053120;28;19920;-80
2022/04/04 11:09:57;;;;;;;;;;;;;;;21.68;36.83;100747.28;5053244;28;20269;-81
2022/04/04 11:12:25;;;;;;;;;;;;;;;21.66;36.66;100744.03;5035783;28;19916;-82
2022/04/04 11:15:04;;;;;;;;;;;;;;;21.63;36.47;100733.66;5035035;28;19921;-83
2022/04/04 11:17:30;;;;;;;;;;;;;;;21.59;36.62;100739.78;5053120;28;19923;-84
2022/04/04 11:20:10;;;;;;;;;;;;;;;21.58;36.73;100727.19;5035022;28;19917;-82
2022/04/04 11:22:41;;;;;;;;;;;;;;;21.56;36.38;100715.69;5052853;28;19917;-82
2022/04/04 11:25:07;;;;;;;;;;;;;;;21.55;36.51;100727.00;5052803;28;19985;-83
2022/04/04 11:27:36;;;;;;;;;;;;;;;21.54;36.45;100730.88;5053428;28;19916;-81
2022/04/04 11:30:04;;;;;;;;;;;;;;;21.51;36.45;100724.06;5052388;28;20320;-82
2022/04/04 11:32:31;;;;;;;;;;;;;;;21.51;36.44;100715.03;5034960;28;19990;-82
2022/04/04 11:35:18;;;;;;;;;;;;;;;21.48;36.32;100710.16;5035113;28;19924;-82
2022/04/04 11:37:45;;;;;;;;;;;;;;;21.47;36.35;100716.78;5052906;28;20375;-82
2022/04/04 11:40:15;;;;;;;;;;;;;;;21.46;36.35;100713.22;5052706;28;19923;-79
2022/04/04 11:42:44;;;;;;;;;;;;;;;21.46;36.40;100701.41;5052767;28;20380;-79
2022/04/04 11:45:14;;;;;;;;;;;;;;;21.45;36.41;100695.13;5052557;28;19921;-80
2022/04/04 11:47:40;;;;;;;;;;;;;;;21.45;36.24;100706.13;5052462;28;20007;-78
2022/04/04 11:50:06;;;;;;;;;;;;;;;21.46;36.39;100707.72;5053943;28;19967;-78
2022/04/04 11:52:45;;;;;;;;;;;;;;;21.46;36.28;100704.16;5056325;28;19917;-79
2022/04/04 11:55:13;;;;;;;;;;;;;;;21.46;36.20;100701.41;5056485;28;19929;-76
2022/04/04 11:57:39;;;;;;;;;;;;;;;21.46;36.48;100695.94;5038449;28;19967;-81
2022/04/04 12:00:05;;;;;;;;;;;;;;;21.46;36.48;100696.72;5056254;28;19924;-82
2022/04/04 12:02:30;;;;;;;;;;;;;;;21.46;36.18;100687.69;5056253;28;20412;-82
2022/04/04 12:04:57;;;;;;;;;;;;;;;21.46;36.35;100677.50;5037904;28;19917;-82
2022/04/04 12:07:22;;;;;;;;;;;;;;;21.46;36.22;100666.50;5055706;28;19954;-83
2022/04/04 12:09:52;;;;;;;;;;;;;;;21.47;36.22;100676.38;5038012;28;20386;-81
2022/04/04 12:12:17;;;;;;;;;;;;;;;21.47;36.47;100679.13;5037818;28;19917;-80
2022/04/04 12:14:47;;;;;;;;;;;;;;;21.47;36.40;100670.06;5038016;28;19969;-80
2022/04/04 12:17:13;;;;;;;;;;;;;;;21.47;36.48;100668.13;5055799;28;20364;-81
2022/04/04 12:19:43;;;;;;;;;;;;;;;21.48;36.42;100675.25;5037891;28;19921;-84
2022/04/04 12:24:55;;;;;;;;;;;;;;;21.48;36.51;100669.75;5055729;28;19916;-81
2022/04/04 12:24:56;;;;;;;;;;;;;;;21.50;36.51;100659.25;5055724;28;19976;-82
2022/04/04 12:27:22;;;;;;;;;;;;;;;21.49;36.42;100662.31;5037730;28;19920;-81
2022/04/04 12:29:47;;;;;;;;;;;;;;;21.50;36.46;100662.00;5055637;28;20280;-80
2022/04/04 12:32:14;;;;;;;;;;;;;;;21.50;36.17;100647.47;5055823;28;20043;-76
2022/04/04 12:34:40;;;;;;;;;;;;;;;21.50;36.50;100645.50;5055176;28;19971;-80
2022/04/04 12:37:07;;;;;;;;;;;;;;;21.52;36.44;100647.94;5055893;28;19917;-81